Time;durP1;ratioP1;P1;durP2;ratioP2;P2;SDS_P1;SDS_P2;PMS_P1;PMS_P2;Temp;Humidity;BMP_temperature;BMP_pressure;BME280_temperature;BME280_humidity;BME280_pressure;Samples;Min_cycle;Max_cycle;Signal;HPM_P1;HPM_P2
2022/04/07 19:56:10;;;;;;;5.03;1.77;;;;;;;;;;5060512;27;1405448;-75
2022/04/07 19:58:37;;;;;;;4.70;1.60;;;;;;;;;;5115033;28;20233;-76
2022/04/07 20:01:06;;;;;;;5.07;1.90;;;;;;;;;;5123568;28;20198;-75
2022/04/07 20:03:33;;;;;;;5.77;1.70;;;;;;;;;;5111990;28;20232;-75
2022/04/07 20:06:00;;;;;;;5.13;2.10;;;;;;;;;;5088557;28;20262;-75
2022/04/07 20:08:28;;;;;;;7.80;2.20;;;;;;;;;;5090712;28;20250;-76
2022/04/07 20:10:55;;;;;;;5.27;1.93;;;;;;;;;;5088781;28;20233;-76
2022/04/07 20:13:24;;;;;;;4.97;2.03;;;;;;;;;;5095195;28;20225;-76
2022/04/07 20:15:52;;;;;;;3.80;1.73;;;;;;;;;;5099485;28;20207;-76
2022/04/07 20:18:20;;;;;;;5.57;2.07;;;;;;;;;;5094762;28;20204;-76
2022/04/07 20:20:47;;;;;;;4.73;1.83;;;;;;;;;;5100772;28;20219;-75
2022/04/07 20:23:15;;;;;;;6.47;2.10;;;;;;;;;;5092906;28;20307;-75
2022/04/07 20:25:43;;;;;;;3.87;1.83;;;;;;;;;;5088397;28;20273;-76
2022/04/07 20:28:10;;;;;;;5.57;2.07;;;;;;;;;;5105709;28;20210;-76
2022/04/07 20:30:40;;;;;;;3.97;1.90;;;;;;;;;;5088549;28;20235;-75
2022/04/07 20:33:08;;;;;;;6.43;2.20;;;;;;;;;;5096678;28;20231;-75
2022/04/07 20:35:35;;;;;;;10.10;2.00;;;;;;;;;;5101729;28;20266;-76
2022/04/07 20:38:02;;;;;;;5.83;2.00;;;;;;;;;;5112611;28;20252;-75
2022/04/07 20:40:30;;;;;;;2.90;1.80;;;;;;;;;;5088468;28;20234;-76
2022/04/07 20:42:57;;;;;;;4.43;2.00;;;;;;;;;;5096016;28;20250;-76
2022/04/07 20:45:24;;;;;;;6.93;2.63;;;;;;;;;;5094309;28;20227;-76
2022/04/07 20:47:53;;;;;;;10.20;2.50;;;;;;;;;;5097915;28;20195;-75
2022/04/07 20:50:20;;;;;;;6.80;2.20;;;;;;;;;;5088163;28;20242;-76
2022/04/07 20:52:47;;;;;;;5.00;2.20;;;;;;;;;;5093303;28;20301;-76
2022/04/07 20:55:15;;;;;;;4.27;1.73;;;;;;;;;;5087777;28;20212;-75
2022/04/07 20:57:43;;;;;;;5.47;2.33;;;;;;;;;;5096714;28;20195;-75
2022/04/07 21:00:11;;;;;;;6.07;2.27;;;;;;;;;;5101035;28;20207;-75
2022/04/07 21:02:39;;;;;;;7.90;2.30;;;;;;;;;;5110247;28;20218;-75
2022/04/07 21:05:08;;;;;;;8.60;2.33;;;;;;;;;;5087608;28;20784;-76
2022/04/07 21:07:36;;;;;;;4.67;1.90;;;;;;;;;;5077852;28;20224;-75
2022/04/07 21:10:04;;;;;;;5.50;1.90;;;;;;;;;;5074419;28;20212;-75
2022/04/07 21:12:31;;;;;;;6.37;2.27;;;;;;;;;;5087879;28;20297;-75
2022/04/07 21:14:59;;;;;;;5.83;2.10;;;;;;;;;;5080548;28;20290;-76
2022/04/07 21:17:26;;;;;;;5.23;2.40;;;;;;;;;;5074395;28;20209;-76
2022/04/07 21:19:54;;;;;;;5.50;2.07;;;;;;;;;;5087248;28;20201;-75
2022/04/07 21:22:22;;;;;;;6.93;3.37;;;;;;;;;;5093699;28;20223;-75
2022/04/07 21:24:49;;;;;;;6.40;2.37;;;;;;;;;;5083982;28;20270;-75
2022/04/07 21:27:17;;;;;;;6.47;2.50;;;;;;;;;;5093615;28;20203;-76
2022/04/07 21:29:44;;;;;;;5.37;2.50;;;;;;;;;;5093236;28;20211;-75
2022/04/07 21:32:12;;;;;;;5.40;2.77;;;;;;;;;;5094372;28;20226;-76
2022/04/07 21:34:39;;;;;;;7.27;2.17;;;;;;;;;;5074015;28;20262;-75
2022/04/07 21:37:06;;;;;;;11.63;2.37;;;;;;;;;;5085022;28;20195;-75
2022/04/07 21:39:34;;;;;;;6.37;2.43;;;;;;;;;;5075173;28;20212;-75
2022/04/07 21:42:02;;;;;;;5.47;2.07;;;;;;;;;;5081483;28;20288;-76
2022/04/07 21:44:30;;;;;;;4.00;1.73;;;;;;;;;;5075884;28;20232;-76
2022/04/07 21:46:57;;;;;;;6.90;2.00;;;;;;;;;;5084913;28;20257;-76
2022/04/07 21:49:25;;;;;;;7.13;2.20;;;;;;;;;;5092562;28;20291;-76
2022/04/07 21:51:52;;;;;;;5.27;1.77;;;;;;;;;;5074464;28;20247;-76
2022/04/07 21:54:19;;;;;;;7.23;1.90;;;;;;;;;;5075028;28;20278;-74
2022/04/07 21:56:48;;;;;;;4.30;1.60;;;;;;;;;;5086928;28;20654;-76
2022/04/07 21:59:15;;;;;;;4.47;1.90;;;;;;;;;;5092175;28;20210;-76
2022/04/07 22:01:43;;;;;;;6.07;1.90;;;;;;;;;;5085674;28;20204;-76
2022/04/07 22:04:11;;;;;;;4.90;2.07;;;;;;;;;;5073599;28;20315;-76
2022/04/07 22:06:38;;;;;;;5.97;2.10;;;;;;;;;;5086721;28;20226;-76
2022/04/07 22:09:06;;;;;;;5.43;1.80;;;;;;;;;;5087204;28;20212;-75
2022/04/07 22:11:33;;;;;;;8.40;2.47;;;;;;;;;;5078995;28;20250;-76
2022/04/07 22:14:02;;;;;;;5.77;1.90;;;;;;;;;;5072867;28;20315;-76
2022/04/07 22:16:30;;;;;;;5.03;1.90;;;;;;;;;;5078277;28;20220;-76
2022/04/07 22:19:00;;;;;;;4.60;1.90;;;;;;;;;;5072008;28;20204;-76
2022/04/07 22:21:28;;;;;;;5.27;1.90;;;;;;;;;;5078867;28;20273;-75
2022/04/07 22:23:55;;;;;;;4.27;1.57;;;;;;;;;;5072571;28;20292;-76
2022/04/07 22:26:22;;;;;;;5.60;1.60;;;;;;;;;;5075396;28;20221;-76
2022/04/07 22:28:50;;;;;;;4.87;1.60;;;;;;;;;;5087696;28;20250;-76
2022/04/07 22:31:18;;;;;;;4.93;1.70;;;;;;;;;;5080353;28;20196;-76
2022/04/07 22:33:46;;;;;;;5.00;1.90;;;;;;;;;;5072742;28;20230;-76
2022/04/07 22:36:14;;;;;;;5.97;1.80;;;;;;;;;;5075755;28;20201;-75
2022/04/07 22:38:41;;;;;;;4.63;1.63;;;;;;;;;;5072598;28;20210;-76
2022/04/07 22:41:08;;;;;;;5.43;1.87;;;;;;;;;;5073354;28;20283;-75
2022/04/07 22:43:35;;;;;;;4.07;1.63;;;;;;;;;;5072105;28;20221;-76
2022/04/07 22:46:02;;;;;;;5.37;1.87;;;;;;;;;;5084187;28;20811;-76
2022/04/07 22:48:31;;;;;;;5.20;1.60;;;;;;;;;;5072165;28;20308;-76
2022/04/07 22:50:58;;;;;;;5.07;1.60;;;;;;;;;;5087732;28;20271;-76
2022/04/07 22:53:25;;;;;;;3.67;1.77;;;;;;;;;;5091507;28;20253;-76
2022/04/07 22:55:52;;;;;;;5.03;1.70;;;;;;;;;;5087435;28;20220;-76
2022/04/07 22:58:20;;;;;;;4.97;1.63;;;;;;;;;;5083512;28;20294;-76
2022/04/07 23:00:48;;;;;;;7.30;1.93;;;;;;;;;;5087299;28;20258;-75
2022/04/07 23:03:15;;;;;;;4.50;1.50;;;;;;;;;;5089844;28;20228;-76
2022/04/07 23:05:43;;;;;;;3.33;1.53;;;;;;;;;;5087256;28;20307;-76
2022/04/07 23:08:11;;;;;;;6.27;1.57;;;;;;;;;;5072107;28;20204;-76
2022/04/07 23:10:38;;;;;;;4.73;1.60;;;;;;;;;;5089624;28;20255;-76
2022/04/07 23:13:05;;;;;;;3.83;1.70;;;;;;;;;;5071899;28;20311;-76
2022/04/07 23:15:32;;;;;;;5.10;1.60;;;;;;;;;;5078897;28;20322;-76
2022/04/07 23:18:00;;;;;;;2.43;1.43;;;;;;;;;;5071703;28;20215;-75
2022/04/07 23:20:29;;;;;;;4.07;1.50;;;;;;;;;;5077687;28;20208;-76
2022/04/07 23:22:57;;;;;;;3.87;1.60;;;;;;;;;;5072056;28;20228;-75
2022/04/07 23:25:24;;;;;;;3.27;1.40;;;;;;;;;;5074680;28;20234;-76
2022/04/07 23:30:21;;;;;;;2.57;1.47;;;;;;;;;;5062913;22;20231;-76
2022/04/07 23:32:48;;;;;;;4.60;1.60;;;;;;;;;;5051051;28;20228;-77
2022/04/07 23:35:15;;;;;;;4.27;1.90;;;;;;;;;;5050880;28;20292;-76
2022/04/07 23:37:42;;;;;;;4.13;1.60;;;;;;;;;;5051325;28;20211;-76
2022/04/07 23:40:11;;;;;;;4.00;1.80;;;;;;;;;;5032681;28;20275;-76
2022/04/07 23:42:39;;;;;;;5.20;1.90;;;;;;;;;;5031164;28;20300;-76
2022/04/07 23:45:06;;;;;;;5.80;1.80;;;;;;;;;;5031055;28;20222;-76
2022/04/07 23:47:33;;;;;;;4.83;1.70;;;;;;;;;;5030793;28;20297;-76
2022/04/07 23:50:02;;;;;;;3.77;1.77;;;;;;;;;;5031224;28;20221;-76
2022/04/07 23:52:29;;;;;;;4.23;1.60;;;;;;;;;;5031109;28;20268;-76
2022/04/07 23:54:56;;;;;;;4.57;1.40;;;;;;;;;;5030760;28;20200;-76
2022/04/07 23:57:25;;;;;;;5.80;1.60;;;;;;;;;;5031289;28;20205;-77
2022/04/07 23:59:52;;;;;;;5.40;1.70;;;;;;;;;;5030848;28;20217;-77
